Time;durP1;ratioP1;P1;durP2;ratioP2;P2;SDS_P1;SDS_P2;PMS_P1;PMS_P2;Temp;Humidity;BMP_temperature;BMP_pressure;BME280_temperature;BME280_humidity;BME280_pressure;Samples;Min_cycle;Max_cycle;Signal;HPM_P1;HPM_P2
2021/04/14 00:00:53;;;;;;;5.87;5.13;;;;;21.50;101992.00;;;;2068796;28;20247;-49
2021/04/14 00:01:57;;;;;;;5.37;4.73;;;;;21.50;101991.00;;;;2069675;28;20215;-49
2021/04/14 00:02:57;;;;;;;5.40;4.90;;;;;21.50;101992.00;;;;2070442;28;20215;-50
2021/04/14 00:03:58;;;;;;;5.73;4.73;;;;;21.50;101998.00;;;;2077014;28;20751;-49
2021/04/14 00:04:58;;;;;;;6.00;5.03;;;;;21.50;101996.00;;;;2076948;28;20220;-49
2021/04/14 00:05:59;;;;;;;5.73;5.23;;;;;21.50;101995.00;;;;2077567;28;20226;-50
2021/04/14 00:07:00;;;;;;;5.43;4.83;;;;;21.50;102001.00;;;;2073566;28;20747;-49
2021/04/14 00:08:00;;;;;;;5.60;5.10;;;;;21.50;101982.00;;;;2073552;28;20271;-49
2021/04/14 00:09:00;;;;;;;5.87;4.40;;;;;21.50;101995.00;;;;2069449;28;20462;-49
2021/04/14 00:10:01;;;;;;;4.43;3.97;;;;;21.40;101983.00;;;;2066113;28;20992;-49
2021/04/14 00:11:03;;;;;;;5.87;4.63;;;;;21.50;101987.00;;;;2066394;28;20226;-50
2021/04/14 00:12:04;;;;;;;5.22;4.50;;;;;21.50;101995.00;;;;2071446;28;20223;-49
2021/04/14 00:13:15;;;;;;;5.03;4.50;;;;;21.40;101988.00;;;;2077648;28;20318;-49
2021/04/14 00:14:15;;;;;;;4.90;4.40;;;;;21.40;101987.00;;;;2070268;28;20213;-49
2021/04/14 00:15:21;;;;;;;5.10;4.60;;;;;21.40;101990.00;;;;2069684;28;20218;-49
2021/04/14 00:16:23;;;;;;;4.43;3.80;;;;;21.40;101982.00;;;;2071430;28;21010;-48
2021/04/14 00:17:24;;;;;;;4.90;4.15;;;;;21.40;101983.00;;;;2071345;28;20266;-50
2021/04/14 00:18:24;;;;;;;5.47;4.50;;;;;21.40;101983.00;;;;2076932;28;20229;-50
2021/04/14 00:19:25;;;;;;;4.37;3.97;;;;;21.40;101988.00;;;;2074931;28;20214;-49
2021/04/14 00:20:25;;;;;;;4.50;3.90;;;;;21.40;101985.00;;;;2077133;28;20445;-49
2021/04/14 00:21:26;;;;;;;5.10;4.23;;;;;21.40;101983.00;;;;2077780;28;20631;-49
2021/04/14 00:22:26;;;;;;;4.80;3.87;;;;;21.40;101980.00;;;;2077352;28;20315;-50
2021/04/14 00:23:26;;;;;;;4.37;3.90;;;;;21.40;101982.00;;;;2077073;28;20215;-49
2021/04/14 00:24:27;;;;;;;4.53;4.10;;;;;21.40;101976.00;;;;2073917;28;20695;-49
2021/04/14 00:25:30;;;;;;;4.77;4.07;;;;;21.40;101985.00;;;;2076171;28;20210;-48
2021/04/14 00:26:30;;;;;;;5.45;4.05;;;;;21.40;101982.00;;;;2070687;28;20241;-49
2021/04/14 00:27:34;;;;;;;5.97;4.37;;;;;21.40;101977.00;;;;2075961;28;20249;-49
2021/04/14 00:28:35;;;;;;;4.68;4.10;;;;;21.40;101986.00;;;;2074261;28;20237;-49
2021/04/14 00:29:35;;;;;;;3.70;3.40;;;;;21.40;101990.00;;;;2073499;28;20230;-49
2021/04/14 00:30:35;;;;;;;4.00;3.60;;;;;21.40;101985.00;;;;2071439;28;20215;-49
2021/04/14 00:31:36;;;;;;;4.37;3.80;;;;;21.30;101976.00;;;;2068412;28;20762;-49
2021/04/14 00:32:37;;;;;;;4.20;3.80;;;;;21.30;101984.00;;;;2068583;28;20640;-50
2021/04/14 00:33:37;;;;;;;4.40;4.00;;;;;21.30;101982.00;;;;2069136;28;20446;-49
2021/04/14 00:34:37;;;;;;;5.17;3.97;;;;;21.30;101982.00;;;;2069289;28;20218;-49
2021/04/14 00:35:38;;;;;;;4.50;4.10;;;;;21.30;101981.00;;;;2077322;28;20578;-49
2021/04/14 00:36:39;;;;;;;4.20;3.80;;;;;21.30;101974.00;;;;2078655;28;20305;-49
2021/04/14 00:37:39;;;;;;;4.22;3.63;;;;;21.30;101988.00;;;;2078080;28;20316;-49
2021/04/14 00:38:40;;;;;;;4.20;3.80;;;;;21.30;101989.00;;;;2072083;28;20726;-49
2021/04/14 00:39:40;;;;;;;3.87;3.50;;;;;21.30;101981.00;;;;2077348;28;20685;-50
2021/04/14 00:40:42;;;;;;;3.73;3.43;;;;;21.30;101986.00;;;;2078692;28;20198;-49
2021/04/14 00:41:43;;;;;;;4.65;4.00;;;;;21.30;101979.00;;;;2078667;28;20238;-49
2021/04/14 00:42:43;;;;;;;4.70;3.30;;;;;21.30;101980.00;;;;2070216;28;20204;-49
2021/04/14 00:43:44;;;;;;;4.93;4.00;;;;;21.30;101986.00;;;;2069782;28;20504;-49
2021/04/14 00:44:44;;;;;;;4.10;3.70;;;;;21.30;102017.00;;;;2075916;28;20210;-50
2021/04/14 00:45:44;;;;;;;4.00;3.60;;;;;21.30;101978.00;;;;2072249;28;20687;-49
2021/04/14 00:46:45;;;;;;;3.40;3.10;;;;;21.30;101995.00;;;;2072038;28;20586;-49
2021/04/14 00:47:45;;;;;;;4.27;3.87;;;;;21.30;101981.00;;;;2071132;28;20217;-49
2021/04/14 00:48:45;;;;;;;4.40;3.53;;;;;21.30;101986.00;;;;2070850;28;20214;-49
2021/04/14 00:49:46;;;;;;;3.97;3.57;;;;;21.30;101983.00;;;;2070603;28;20214;-49
2021/04/14 00:50:47;;;;;;;3.50;3.20;;;;;21.30;102001.00;;;;2070611;28;20207;-48
2021/04/14 00:51:47;;;;;;;4.00;3.20;;;;;21.20;101985.00;;;;2070888;28;20458;-49
2021/04/14 00:52:48;;;;;;;4.47;3.50;;;;;21.20;101993.00;;;;2069631;28;20277;-50
2021/04/14 00:53:48;;;;;;;3.00;2.63;;;;;21.20;101980.00;;;;2071028;28;20208;-49
2021/04/14 00:54:49;;;;;;;3.80;3.50;;;;;21.20;101984.00;;;;2072253;28;20214;-49
2021/04/14 00:55:50;;;;;;;3.63;3.23;;;;;21.20;101978.00;;;;2078612;28;20277;-49
2021/04/14 00:56:50;;;;;;;3.95;3.55;;;;;21.20;101982.00;;;;2073299;28;20222;-49
2021/04/14 00:57:50;;;;;;;3.97;3.57;;;;;21.20;101977.00;;;;2073426;28;20218;-49
2021/04/14 00:58:51;;;;;;;4.07;3.67;;;;;21.20;101981.00;;;;2076168;28;20221;-49
2021/04/14 00:59:51;;;;;;;4.10;3.00;;;;;21.20;101982.00;;;;2070513;28;20218;-50
2021/04/14 01:00:52;;;;;;;3.70;3.10;;;;;21.20;101980.00;;;;2070350;28;20249;-49
2021/04/14 01:01:52;;;;;;;4.60;3.43;;;;;21.20;101979.00;;;;2067303;28;20215;-49
2021/04/14 01:02:53;;;;;;;3.33;3.03;;;;;21.20;101981.00;;;;2070545;28;20234;-49
2021/04/14 01:03:55;;;;;;;3.93;3.60;;;;;21.20;101988.00;;;;2079065;28;20582;-49
2021/04/14 01:04:55;;;;;;;3.10;2.80;;;;;21.20;101981.00;;;;2077933;28;20206;-49
2021/04/14 01:05:56;;;;;;;4.10;3.33;;;;;21.20;101979.00;;;;2078952;28;21082;-49
2021/04/14 01:06:56;;;;;;;3.93;3.53;;;;;21.20;101976.00;;;;2078159;28;20709;-49
2021/04/14 01:07:56;;;;;;;3.63;3.33;;;;;21.20;101978.00;;;;2073813;28;20576;-49
2021/04/14 01:08:58;;;;;;;3.80;3.40;;;;;21.20;101983.00;;;;2070225;28;20759;-49
2021/04/14 01:09:58;;;;;;;3.90;3.38;;;;;21.20;101981.00;;;;2069694;28;20215;-49
2021/04/14 01:10:58;;;;;;;3.30;3.00;;;;;21.20;101971.00;;;;2070287;28;20209;-49
2021/04/14 01:11:59;;;;;;;4.17;3.03;;;;;21.10;101975.00;;;;2070199;28;20215;-50
2021/04/14 01:13:00;;;;;;;4.20;3.00;;;;;21.10;101969.00;;;;2069062;28;20282;-49
2021/04/14 01:14:00;;;;;;;4.18;2.85;;;;;21.10;101978.00;;;;2070931;28;20219;-49
2021/04/14 01:15:01;;;;;;;2.60;2.40;;;;;21.10;101976.00;;;;2069474;28;20224;-48
2021/04/14 01:16:01;;;;;;;3.90;3.47;;;;;21.10;101980.00;;;;2071139;28;20704;-49
2021/04/14 01:17:02;;;;;;;3.20;2.90;;;;;21.10;101976.00;;;;2070453;28;20247;-49
2021/04/14 01:18:04;;;;;;;3.80;3.40;;;;;21.10;101970.00;;;;2070328;28;20624;-49
2021/04/14 01:19:04;;;;;;;3.63;3.33;;;;;21.10;101969.00;;;;2070768;28;20691;-49
2021/04/14 01:20:06;;;;;;;3.83;3.17;;;;;21.10;101973.00;;;;2070581;28;21031;-48
2021/04/14 01:21:21;;;;;;;3.45;3.15;;;;;21.10;101972.00;;;;2072057;28;20223;-48
2021/04/14 01:22:21;;;;;;;3.28;2.97;;;;;21.10;101979.00;;;;2078590;28;20213;-49
2021/04/14 01:23:23;;;;;;;3.50;3.20;;;;;21.10;101970.00;;;;2079187;28;20675;-49
2021/04/14 01:24:23;;;;;;;3.08;2.78;;;;;21.10;101970.00;;;;2068300;28;20219;-49
2021/04/14 01:25:31;;;;;;;4.33;2.80;;;;;21.10;101970.00;;;;2069856;28;20209;-48
2021/04/14 01:26:31;;;;;;;3.92;3.10;;;;;20.90;101972.00;;;;2070701;28;21091;-49
2021/04/14 01:27:32;;;;;;;2.87;2.53;;;;;21.10;101974.00;;;;2070840;28;20224;-49
2021/04/14 01:28:34;;;;;;;3.93;3.00;;;;;21.10;101974.00;;;;2068493;28;20219;-49
2021/04/14 01:29:35;;;;;;;2.80;2.50;;;;;21.10;101967.00;;;;2069986;28;20223;-48
2021/04/14 01:30:35;;;;;;;2.83;2.63;;;;;21.10;101968.00;;;;2070053;28;20357;-48
2021/04/14 01:31:36;;;;;;;3.07;2.77;;;;;21.00;101968.00;;;;2070324;28;20583;-50
2021/04/14 01:32:36;;;;;;;3.40;2.77;;;;;21.00;101969.00;;;;2070858;28;20699;-49
2021/04/14 01:33:36;;;;;;;3.17;2.70;;;;;21.00;101971.00;;;;2069823;28;20218;-49
2021/04/14 01:34:37;;;;;;;3.00;2.63;;;;;21.00;101963.00;;;;2075745;28;20636;-48
2021/04/14 01:35:37;;;;;;;3.20;2.90;;;;;21.00;101972.00;;;;2077827;28;20221;-48
2021/04/14 01:36:37;;;;;;;3.40;2.80;;;;;21.00;101964.00;;;;2078718;28;20919;-49
2021/04/14 01:37:39;;;;;;;3.17;2.87;;;;;21.00;101963.00;;;;2078585;28;20219;-47
2021/04/14 01:38:39;;;;;;;3.45;3.10;;;;;21.00;101964.00;;;;2075000;28;20777;-49
2021/04/14 01:39:39;;;;;;;5.20;3.60;;;;;21.00;101969.00;;;;2078120;28;20218;-49
2021/04/14 01:40:40;;;;;;;3.10;2.80;;;;;21.00;101967.00;;;;2078140;28;20247;-49
2021/04/14 01:41:40;;;;;;;3.97;3.07;;;;;21.00;101965.00;;;;2075490;28;20217;-49
2021/04/14 01:42:41;;;;;;;3.00;2.70;;;;;21.00;101967.00;;;;2078233;28;20559;-48
2021/04/14 01:43:41;;;;;;;4.10;2.80;;;;;21.00;101966.00;;;;2078573;28;20662;-49
2021/04/14 01:44:41;;;;;;;2.60;2.40;;;;;21.00;101969.00;;;;2073895;28;20226;-50
2021/04/14 01:45:44;;;;;;;3.27;2.67;;;;;21.00;101967.00;;;;2070227;28;20691;-50
2021/04/14 01:46:44;;;;;;;2.92;2.63;;;;;21.00;101963.00;;;;2073193;28;20221;-49
2021/04/14 01:47:44;;;;;;;5.30;2.63;;;;;21.00;101965.00;;;;2070568;28;20211;-48
2021/04/14 01:48:45;;;;;;;3.53;2.70;;;;;21.00;101968.00;;;;2069683;28;20211;-49
2021/04/14 01:49:45;;;;;;;2.57;2.37;;;;;21.00;101966.00;;;;2070366;28;20211;-49
2021/04/14 01:50:46;;;;;;;2.70;2.50;;;;;21.00;101963.00;;;;2070110;28;20345;-48
2021/04/14 01:51:47;;;;;;;2.67;2.20;;;;;21.00;101973.00;;;;2067643;28;20221;-48
2021/04/14 01:52:48;;;;;;;2.90;2.65;;;;;21.00;101965.00;;;;2074665;28;20702;-49
2021/04/14 01:53:49;;;;;;;2.50;2.30;;;;;21.00;101962.00;;;;2078702;28;20206;-48
2021/04/14 01:54:49;;;;;;;3.60;2.97;;;;;21.00;101968.00;;;;2077409;28;20210;-48
2021/04/14 01:55:50;;;;;;;2.70;2.50;;;;;21.00;101967.00;;;;2078618;28;20229;-48
2021/04/14 01:56:50;;;;;;;3.33;3.03;;;;;20.90;101967.00;;;;2078557;28;20218;-48
2021/04/14 01:57:50;;;;;;;3.00;2.70;;;;;21.00;101970.00;;;;2074970;28;20582;-48
2021/04/14 01:58:51;;;;;;;2.97;2.67;;;;;20.90;101962.00;;;;2075939;28;20253;-50
2021/04/14 01:59:52;;;;;;;3.57;2.80;;;;;20.90;101967.00;;;;2077647;28;20253;-49
2021/04/14 02:00:56;;;;;;;2.90;2.60;;;;;20.90;101965.00;;;;2078163;28;20218;-49
2021/04/14 02:01:56;;;;;;;3.85;2.75;;;;;20.90;101963.00;;;;2078504;28;20464;-48
2021/04/14 02:02:57;;;;;;;2.50;2.30;;;;;20.90;101919.00;;;;2078266;28;20687;-49
2021/04/14 02:03:57;;;;;;;2.93;2.57;;;;;20.90;101965.00;;;;2074666;28;20645;-49
2021/04/14 02:04:58;;;;;;;2.50;2.30;;;;;20.90;101964.00;;;;2069239;28;20587;-48
2021/04/14 02:05:58;;;;;;;3.13;2.70;;;;;20.90;101962.00;;;;2069857;28;20211;-48
2021/04/14 02:06:59;;;;;;;3.37;2.60;;;;;20.90;101960.00;;;;2070373;28;20215;-48
2021/04/14 02:07:59;;;;;;;2.40;2.17;;;;;20.90;101964.00;;;;2073707;28;20608;-49
2021/04/14 02:09:00;;;;;;;2.40;2.20;;;;;20.90;101965.00;;;;2069688;28;20709;-49
2021/04/14 02:10:00;;;;;;;3.47;2.80;;;;;20.90;101967.00;;;;2070331;28;20546;-49
2021/04/14 02:11:01;;;;;;;3.00;2.53;;;;;20.90;101965.00;;;;2069598;28;20366;-49
2021/04/14 02:12:01;;;;;;;2.77;2.40;;;;;20.90;101976.00;;;;2069674;28;20238;-49
2021/04/14 02:13:04;;;;;;;2.53;2.30;;;;;20.90;101958.00;;;;2070394;28;20729;-49
2021/04/14 02:14:09;;;;;;;2.72;2.38;;;;;20.90;101962.00;;;;2072293;28;20211;-49
2021/04/14 02:15:13;;;;;;;2.38;2.17;;;;;20.90;101956.00;;;;2074211;28;20438;-49
2021/04/14 02:16:17;;;;;;;3.05;2.72;;;;;20.90;101959.00;;;;2073649;28;20237;-49
2021/04/14 02:17:18;;;;;;;2.60;2.40;;;;;20.90;101949.00;;;;2072008;28;20320;-52
2021/04/14 02:18:18;;;;;;;2.20;2.00;;;;;20.90;101949.00;;;;2073200;28;20259;-50
2021/04/14 02:19:19;;;;;;;2.80;2.60;;;;;20.90;101960.00;;;;2069467;28;20692;-49
2021/04/14 02:20:19;;;;;;;3.00;2.40;;;;;20.80;101947.00;;;;2069352;28;20723;-49
2021/04/14 02:21:20;;;;;;;3.40;3.10;;;;;20.90;101967.00;;;;2070386;28;20299;-49
2021/04/14 02:22:20;;;;;;;2.97;2.67;;;;;20.80;101944.00;;;;2070194;28;20215;-49
2021/04/14 02:23:28;;;;;;;2.57;2.37;;;;;20.80;101949.00;;;;2070354;28;20207;-49
2021/04/14 02:24:29;;;;;;;2.92;2.47;;;;;20.80;101948.00;;;;2069956;28;20231;-49
2021/04/14 02:25:29;;;;;;;2.50;2.30;;;;;20.80;101951.00;;;;2069391;28;20326;-48
2021/04/14 02:26:29;;;;;;;3.80;2.73;;;;;20.80;101956.00;;;;2070277;28;20262;-47
2021/04/14 02:27:30;;;;;;;2.50;2.30;;;;;20.80;101951.00;;;;2070209;28;20206;-49
2021/04/14 02:28:30;;;;;;;2.60;2.30;;;;;20.80;101951.00;;;;2074018;28;20232;-49
2021/04/14 02:29:31;;;;;;;3.40;2.50;;;;;20.80;101956.00;;;;2068291;28;20218;-48
2021/04/14 02:30:31;;;;;;;2.33;2.13;;;;;20.80;101955.00;;;;2085548;28;20217;-49
2021/04/14 02:31:31;;;;;;;2.80;2.10;;;;;20.80;101943.00;;;;2084436;28;20213;-49
2021/04/14 02:32:32;;;;;;;2.47;2.27;;;;;20.80;101948.00;;;;2073021;28;21276;-48
2021/04/14 02:33:33;;;;;;;2.70;2.50;;;;;20.80;101946.00;;;;2069698;28;20312;-49
2021/04/14 02:34:33;;;;;;;2.47;2.23;;;;;20.80;101946.00;;;;2069770;28;20223;-49
2021/04/14 02:35:33;;;;;;;4.33;2.60;;;;;20.80;101954.00;;;;2069528;28;20686;-48
2021/04/14 02:36:34;;;;;;;2.23;2.03;;;;;20.80;101948.00;;;;2069646;28;20626;-49
2021/04/14 02:37:34;;;;;;;2.33;2.13;;;;;20.80;101948.00;;;;2070236;28;20265;-49
2021/04/14 02:38:34;;;;;;;2.53;2.30;;;;;20.80;101947.00;;;;2069949;28;20214;-48
2021/04/14 02:39:35;;;;;;;2.50;2.30;;;;;20.80;101944.00;;;;2070174;28;20353;-48
2021/04/14 02:40:35;;;;;;;3.00;2.70;;;;;20.80;101952.00;;;;2071567;28;20225;-49
2021/04/14 02:41:36;;;;;;;2.60;2.37;;;;;20.80;101945.00;;;;2077946;28;20697;-48
2021/04/14 02:42:37;;;;;;;2.47;2.27;;;;;20.80;101944.00;;;;2078250;28;20206;-49
2021/04/14 02:43:37;;;;;;;2.70;2.38;;;;;20.70;101947.00;;;;2077963;28;20214;-48
2021/04/14 02:44:38;;;;;;;3.10;2.70;;;;;20.70;101953.00;;;;2073037;28;20583;-49
2021/04/14 02:45:38;;;;;;;2.50;2.30;;;;;20.70;101949.00;;;;2070521;28;20342;-48
2021/04/14 02:46:39;;;;;;;2.60;2.40;;;;;20.80;101950.00;;;;2071790;28;20832;-49
2021/04/14 02:47:39;;;;;;;2.40;2.20;;;;;20.70;101946.00;;;;2069019;28;20229;-50
2021/04/14 02:48:40;;;;;;;2.60;2.40;;;;;20.80;101944.00;;;;2078078;28;20826;-49
2021/04/14 02:49:40;;;;;;;2.50;2.10;;;;;20.70;101943.00;;;;2077813;28;20216;-49
2021/04/14 02:50:40;;;;;;;2.63;2.43;;;;;20.80;101941.00;;;;2070432;28;20294;-48
2021/04/14 02:51:41;;;;;;;2.60;2.37;;;;;20.70;101941.00;;;;2069610;28;20214;-49
2021/04/14 02:52:41;;;;;;;3.37;2.43;;;;;20.70;101942.00;;;;2069303;28;20222;-49
2021/04/14 02:53:41;;;;;;;3.03;2.40;;;;;20.70;101914.00;;;;2069863;28;20623;-49
2021/04/14 02:54:42;;;;;;;2.13;2.00;;;;;20.70;101936.00;;;;2069722;28;20601;-49
2021/04/14 02:55:42;;;;;;;2.60;2.40;;;;;20.70;101936.00;;;;2069109;28;20220;-49
2021/04/14 02:56:42;;;;;;;5.23;2.80;;;;;20.70;101940.00;;;;2073051;28;20301;-49
2021/04/14 02:57:43;;;;;;;2.80;2.40;;;;;20.70;101933.00;;;;2074616;28;20583;-50
2021/04/14 02:58:43;;;;;;;2.40;2.20;;;;;20.70;101926.00;;;;2069439;28;20373;-50
2021/04/14 02:59:43;;;;;;;4.83;3.00;;;;;20.70;101935.00;;;;2070614;28;20288;-50
2021/04/14 03:00:44;;;;;;;3.20;2.80;;;;;20.70;101935.00;;;;2077461;28;20221;-50
2021/04/14 03:01:44;;;;;;;2.83;2.27;;;;;20.70;101934.00;;;;2071404;28;20214;-48
2021/04/14 03:02:44;;;;;;;2.70;2.30;;;;;20.70;101935.00;;;;2069645;28;20222;-49
2021/04/14 03:03:45;;;;;;;2.90;2.60;;;;;20.70;101935.00;;;;2069606;28;20246;-50
2021/04/14 03:04:45;;;;;;;3.37;2.80;;;;;20.70;101932.00;;;;2076172;28;20222;-49
2021/04/14 03:05:46;;;;;;;3.20;2.70;;;;;20.70;101938.00;;;;2069543;28;20223;-49
2021/04/14 03:06:46;;;;;;;3.40;2.30;;;;;20.70;101930.00;;;;2071058;28;20297;-48
2021/04/14 03:07:46;;;;;;;2.60;2.40;;;;;20.70;101930.00;;;;2075855;28;20289;-49
2021/04/14 03:08:47;;;;;;;2.63;2.40;;;;;20.70;101877.00;;;;2075749;28;20225;-48
2021/04/14 03:09:47;;;;;;;2.40;2.20;;;;;20.70;101932.00;;;;2077711;28;20742;-50
2021/04/14 03:10:48;;;;;;;2.60;2.40;;;;;20.70;101927.00;;;;2077891;28;20210;-49
2021/04/14 03:11:48;;;;;;;3.33;2.47;;;;;20.60;101921.00;;;;2077338;28;20222;-49
2021/04/14 03:12:49;;;;;;;2.70;2.50;;;;;20.70;101921.00;;;;2077659;28;20230;-49
2021/04/14 03:13:49;;;;;;;2.50;2.10;;;;;20.70;101926.00;;;;2076525;28;20262;-49
2021/04/14 03:14:49;;;;;;;2.30;2.10;;;;;20.60;101928.00;;;;2070395;28;20349;-50
2021/04/14 03:15:50;;;;;;;2.90;2.20;;;;;20.60;101932.00;;;;2070606;28;20702;-48
2021/04/14 03:16:50;;;;;;;3.07;2.67;;;;;20.60;101926.00;;;;2073226;28;20435;-49
2021/04/14 03:17:50;;;;;;;2.57;2.37;;;;;20.60;101921.00;;;;2076812;28;20209;-49
2021/04/14 03:18:51;;;;;;;2.63;2.43;;;;;20.60;101930.00;;;;2069100;28;20219;-48
2021/04/14 03:19:51;;;;;;;2.60;2.40;;;;;20.60;101928.00;;;;2077711;28;20221;-49
2021/04/14 03:20:53;;;;;;;2.80;2.37;;;;;20.60;101929.00;;;;2072124;28;20221;-50
2021/04/14 03:21:53;;;;;;;3.13;2.42;;;;;20.60;101920.00;;;;2072233;28;20221;-48
2021/04/14 03:22:55;;;;;;;2.60;2.40;;;;;20.60;101927.00;;;;2068605;28;20683;-49
2021/04/14 03:23:56;;;;;;;2.92;2.67;;;;;20.60;101926.00;;;;2068986;28;20778;-49
2021/04/14 03:24:56;;;;;;;2.87;2.67;;;;;20.60;101925.00;;;;2068570;28;20215;-49
2021/04/14 03:25:56;;;;;;;4.50;2.40;;;;;20.60;101923.00;;;;2069664;28;20264;-49
2021/04/14 03:26:57;;;;;;;2.60;2.23;;;;;20.40;101917.00;;;;2069942;28;20207;-49
2021/04/14 03:28:00;;;;;;;2.13;1.93;;;;;20.60;101918.00;;;;2069714;28;20215;-48
2021/04/14 03:29:01;;;;;;;2.17;2.00;;;;;20.60;101916.00;;;;2067303;28;20217;-48
2021/04/14 03:30:03;;;;;;;2.50;2.30;;;;;20.60;101918.00;;;;2069730;28;20217;-49
2021/04/14 03:31:04;;;;;;;2.55;2.35;;;;;20.60;101923.00;;;;2074316;28;20273;-50
2021/04/14 03:32:05;;;;;;;2.73;2.53;;;;;20.60;101920.00;;;;2073901;28;20946;-49
2021/04/14 03:33:05;;;;;;;3.27;2.20;;;;;20.60;101914.00;;;;2074678;28;20276;-48
2021/04/14 03:34:05;;;;;;;2.90;2.60;;;;;20.60;101917.00;;;;2072960;28;20222;-49
2021/04/14 03:35:07;;;;;;;2.70;2.50;;;;;20.60;101923.00;;;;2068934;28;20238;-50
2021/04/14 03:36:07;;;;;;;2.30;2.10;;;;;20.60;101916.00;;;;2069736;28;20202;-49
2021/04/14 03:37:07;;;;;;;2.53;2.33;;;;;20.60;101914.00;;;;2069581;28;20271;-49
2021/04/14 03:38:08;;;;;;;2.47;2.27;;;;;20.60;101918.00;;;;2069884;28;20219;-49
2021/04/14 03:39:08;;;;;;;2.63;2.23;;;;;20.60;101914.00;;;;2069872;28;20211;-49
2021/04/14 03:40:09;;;;;;;2.93;2.73;;;;;20.60;101916.00;;;;2069277;28;20210;-48
2021/04/14 03:41:09;;;;;;;2.53;2.33;;;;;20.50;101914.00;;;;2068622;28;20210;-49
2021/04/14 03:42:09;;;;;;;2.50;2.30;;;;;20.50;101922.00;;;;2068747;28;20574;-49
2021/04/14 03:43:10;;;;;;;2.40;2.20;;;;;20.50;101920.00;;;;2069498;28;20222;-49
2021/04/14 03:44:10;;;;;;;3.00;2.33;;;;;20.50;101921.00;;;;2072058;28;20749;-50
2021/04/14 03:45:15;;;;;;;2.70;2.50;;;;;20.50;101919.00;;;;2071536;28;20606;-48
2021/04/14 03:46:16;;;;;;;2.30;2.10;;;;;20.50;101916.00;;;;2071637;28;20198;-50
2021/04/14 03:47:18;;;;;;;2.35;2.15;;;;;20.50;101920.00;;;;2068283;28;20325;-49
2021/04/14 03:48:18;;;;;;;2.80;2.60;;;;;20.50;101926.00;;;;2074352;28;20214;-49
2021/04/14 03:49:18;;;;;;;3.03;2.10;;;;;20.50;101916.00;;;;2072482;28;20229;-50
2021/04/14 03:50:19;;;;;;;2.27;2.07;;;;;20.50;101915.00;;;;2069682;28;20239;-50
2021/04/14 03:51:19;;;;;;;2.30;2.10;;;;;20.50;101921.00;;;;2068665;28;20210;-49
2021/04/14 03:52:20;;;;;;;2.27;2.07;;;;;20.50;101915.00;;;;2069327;28;20262;-49
2021/04/14 03:53:27;;;;;;;2.40;2.20;;;;;20.50;101915.00;;;;2069689;28;20215;-49
2021/04/14 03:54:28;;;;;;;2.45;2.25;;;;;20.50;101911.00;;;;2072918;28;20222;-49
2021/04/14 03:55:28;;;;;;;2.30;1.90;;;;;20.50;101911.00;;;;2076274;28;20226;-49
2021/04/14 03:56:29;;;;;;;2.60;2.33;;;;;20.50;101911.00;;;;2078153;28;20230;-48
2021/04/14 03:57:29;;;;;;;2.63;2.23;;;;;20.50;101913.00;;;;2074158;28;20222;-49
2021/04/14 03:58:30;;;;;;;2.97;2.50;;;;;20.50;101913.00;;;;2077361;28;20248;-49
2021/04/14 03:59:31;;;;;;;2.50;2.20;;;;;20.50;101914.00;;;;2077452;28;20210;-50
2021/04/14 04:00:31;;;;;;;2.40;2.20;;;;;20.50;101910.00;;;;2077133;28;20702;-48
2021/04/14 04:01:31;;;;;;;2.40;2.13;;;;;20.50;101911.00;;;;2077937;28;20313;-50
2021/04/14 04:02:32;;;;;;;2.40;2.20;;;;;20.50;101918.00;;;;2077177;28;20220;-48
2021/04/14 04:03:32;;;;;;;2.70;2.30;;;;;20.50;101916.00;;;;2070997;28;20246;-48
2021/04/14 04:04:33;;;;;;;3.30;2.10;;;;;20.50;101918.00;;;;2069259;28;20218;-49
2021/04/14 04:05:33;;;;;;;2.10;1.90;;;;;20.50;101912.00;;;;2068122;28;20222;-49
2021/04/14 04:06:33;;;;;;;2.30;2.10;;;;;20.50;101916.00;;;;2069615;28;20298;-49
2021/04/14 04:07:34;;;;;;;2.00;1.80;;;;;20.40;101913.00;;;;2066520;28;20281;-49
2021/04/14 04:08:34;;;;;;;2.53;2.30;;;;;20.50;101910.00;;;;2069957;28;20223;-49
2021/04/14 04:09:34;;;;;;;2.40;2.20;;;;;20.50;101903.00;;;;2070540;28;21194;-49
2021/04/14 04:10:35;;;;;;;2.60;2.40;;;;;20.30;101908.00;;;;2070489;28;20222;-49
2021/04/14 04:11:35;;;;;;;1.90;1.80;;;;;20.50;101906.00;;;;2070270;28;20218;-50
2021/04/14 04:12:35;;;;;;;2.80;2.30;;;;;20.50;101901.00;;;;2075535;28;20209;-49
2021/04/14 04:13:36;;;;;;;2.10;1.97;;;;;20.50;101902.00;;;;2078863;28;20689;-48
2021/04/14 04:14:46;;;;;;;2.30;2.10;;;;;20.40;101908.00;;;;2074813;28;20222;-49
2021/04/14 04:15:46;;;;;;;2.80;2.20;;;;;20.40;101900.00;;;;2063880;28;20521;-49
2021/04/14 04:16:47;;;;;;;3.00;2.70;;;;;20.40;101911.00;;;;2070763;28;20712;-49
2021/04/14 04:17:47;;;;;;;2.33;2.13;;;;;20.40;101909.00;;;;2071193;28;20238;-50
2021/04/14 04:18:47;;;;;;;3.13;2.40;;;;;20.40;101905.00;;;;2079301;28;20206;-49
2021/04/14 04:19:48;;;;;;;2.53;2.33;;;;;20.40;101903.00;;;;2079016;28;20236;-49
2021/04/14 04:20:49;;;;;;;2.23;2.07;;;;;20.40;101901.00;;;;2079231;28;20319;-49
2021/04/14 04:21:49;;;;;;;3.00;2.50;;;;;20.40;101912.00;;;;2078870;28;20981;-48
2021/04/14 04:22:49;;;;;;;2.67;2.20;;;;;20.40;101901.00;;;;2076901;28;20737;-49
2021/04/14 04:23:50;;;;;;;2.57;2.37;;;;;20.40;101905.00;;;;2079376;28;20610;-49
2021/04/14 04:24:50;;;;;;;2.20;2.00;;;;;20.40;101908.00;;;;2078035;28;20206;-48
2021/04/14 04:25:51;;;;;;;2.23;2.03;;;;;20.40;101905.00;;;;2073302;28;20211;-48
2021/04/14 04:26:52;;;;;;;2.33;2.10;;;;;20.40;101909.00;;;;2069925;28;20298;-50
2021/04/14 04:27:52;;;;;;;2.33;2.13;;;;;20.40;101913.00;;;;2070452;28;20308;-49
2021/04/14 04:28:52;;;;;;;3.40;2.60;;;;;20.40;101908.00;;;;2066620;28;20393;-49
2021/04/14 04:29:53;;;;;;;3.37;2.30;;;;;20.40;101911.00;;;;2071181;28;20245;-49
2021/04/14 04:30:53;;;;;;;2.33;1.90;;;;;20.40;101910.00;;;;2077372;28;20217;-49
2021/04/14 04:31:53;;;;;;;2.30;2.10;;;;;20.40;101905.00;;;;2070360;28;20310;-48
2021/04/14 04:32:54;;;;;;;2.20;2.00;;;;;20.40;101909.00;;;;2076560;28;20215;-49
2021/04/14 04:33:55;;;;;;;2.70;2.20;;;;;20.40;101910.00;;;;2078860;28;20690;-48
2021/04/14 04:34:55;;;;;;;2.17;1.93;;;;;20.40;101911.00;;;;2070372;28;20253;-48
2021/04/14 04:35:56;;;;;;;2.43;2.23;;;;;20.40;101909.00;;;;2070937;28;20273;-48
2021/04/14 04:36:56;;;;;;;3.50;2.00;;;;;20.40;101914.00;;;;2070808;28;20314;-49
2021/04/14 04:37:56;;;;;;;2.00;1.80;;;;;20.40;101920.00;;;;2071929;28;20437;-49
2021/04/14 04:38:57;;;;;;;3.00;2.03;;;;;20.40;101914.00;;;;2078199;28;20210;-48
2021/04/14 04:39:57;;;;;;;2.07;1.97;;;;;20.40;101919.00;;;;2078158;28;20356;-49
2021/04/14 04:40:58;;;;;;;2.43;2.10;;;;;20.40;101916.00;;;;2078754;28;20245;-48
2021/04/14 04:41:58;;;;;;;2.27;2.07;;;;;20.30;101904.00;;;;2078846;28;20210;-50
2021/04/14 04:42:58;;;;;;;2.97;1.90;;;;;20.30;101911.00;;;;2077957;28;20271;-49
2021/04/14 04:43:59;;;;;;;2.33;2.10;;;;;20.30;101914.00;;;;2067246;28;20219;-50
2021/04/14 04:44:59;;;;;;;1.80;1.70;;;;;20.30;101915.00;;;;2069947;28;20207;-49
2021/04/14 04:45:59;;;;;;;2.73;2.43;;;;;20.30;101919.00;;;;2072128;28;20273;-49
2021/04/14 04:47:00;;;;;;;2.20;2.03;;;;;20.30;101910.00;;;;2072275;28;20329;-48
2021/04/14 04:48:00;;;;;;;2.30;1.97;;;;;20.30;101911.00;;;;2070760;28;20234;-48
2021/04/14 04:49:01;;;;;;;2.27;2.07;;;;;20.30;101913.00;;;;2077537;28;20206;-49
2021/04/14 04:50:01;;;;;;;3.10;2.20;;;;;20.30;101910.00;;;;2074405;28;20249;-48
2021/04/14 04:51:01;;;;;;;2.33;1.90;;;;;20.30;101918.00;;;;2080399;28;20217;-49
2021/04/14 04:52:02;;;;;;;2.47;2.27;;;;;20.30;101917.00;;;;2069351;28;20634;-50
2021/04/14 04:53:05;;;;;;;2.47;1.87;;;;;20.30;101926.00;;;;2064431;28;20230;-50
2021/04/14 04:54:05;;;;;;;3.63;2.28;;;;;20.30;101924.00;;;;2061267;28;20226;-48
2021/04/14 04:55:06;;;;;;;3.70;2.50;;;;;20.30;101922.00;;;;2082011;28;20225;-49
2021/04/14 04:56:06;;;;;;;2.67;2.10;;;;;20.30;101913.00;;;;2076318;28;20219;-49
2021/04/14 04:57:07;;;;;;;2.40;2.20;;;;;20.30;101922.00;;;;2078316;28;20464;-49
2021/04/14 04:58:08;;;;;;;2.57;2.10;;;;;20.30;101921.00;;;;2078284;28;20221;-48
2021/04/14 04:59:08;;;;;;;2.30;2.10;;;;;20.30;101927.00;;;;2072723;28;20579;-48
2021/04/14 05:00:09;;;;;;;2.50;2.30;;;;;20.30;101926.00;;;;2075299;28;20217;-47
2021/04/14 05:01:09;;;;;;;2.67;1.83;;;;;20.20;101920.00;;;;2078184;28;20232;-49